sensor_id;sensor_type;location;lat;lon;timestamp;P1;durP1;ratioP1;P2;durP2;ratioP2
40849;SDS011;26571;41.610;25.380;2023-04-23T00:01:26;4.60;;;4.30;;
40849;SDS011;26571;41.610;25.380;2023-04-23T00:03:54;4.72;;;3.42;;
40849;SDS011;26571;41.610;25.380;2023-04-23T00:06:21;4.43;;;3.63;;
40849;SDS011;26571;41.610;25.380;2023-04-23T00:08:47;5.70;;;5.05;;
40849;SDS011;26571;41.610;25.380;2023-04-23T00:11:16;4.60;;;4.15;;
40849;SDS011;26571;41.610;25.380;2023-04-23T00:13:42;3.65;;;2.97;;
40849;SDS011;26571;41.610;25.380;2023-04-23T00:16:08;4.03;;;3.70;;
40849;SDS011;26571;41.610;25.380;2023-04-23T00:18:35;3.60;;;3.40;;
40849;SDS011;26571;41.610;25.380;2023-04-23T00:21:00;4.50;;;3.25;;
40849;SDS011;26571;41.610;25.380;2023-04-23T00:23:27;4.28;;;3.88;;
40849;SDS011;26571;41.610;25.380;2023-04-23T00:25:52;4.13;;;3.75;;
40849;SDS011;26571;41.610;25.380;2023-04-23T00:28:18;4.32;;;3.92;;
40849;SDS011;26571;41.610;25.380;2023-04-23T00:30:43;4.25;;;3.85;;
40849;SDS011;26571;41.610;25.380;2023-04-23T00:33:08;4.93;;;4.53;;
40849;SDS011;26571;41.610;25.380;2023-04-23T00:35:34;4.63;;;4.15;;
40849;SDS011;26571;41.610;25.380;2023-04-23T00:38:00;4.65;;;4.25;;
40849;SDS011;26571;41.610;25.380;2023-04-23T00:40:25;4.50;;;4.03;;
40849;SDS011;26571;41.610;25.380;2023-04-23T00:42:50;4.47;;;4.18;;
40849;SDS011;26571;41.610;25.380;2023-04-23T00:45:18;4.72;;;4.22;;
40849;SDS011;26571;41.610;25.380;2023-04-23T00:47:44;4.82;;;4.50;;
40849;SDS011;26571;41.610;25.380;2023-04-23T00:50:10;5.05;;;4.57;;
40849;SDS011;26571;41.610;25.380;2023-04-23T00:52:37;6.25;;;4.93;;
40849;SDS011;26571;41.610;25.380;2023-04-23T00:55:04;10.18;;;4.45;;
40849;SDS011;26571;41.610;25.380;2023-04-23T00:57:31;6.27;;;4.90;;
40849;SDS011;26571;41.610;25.380;2023-04-23T00:59:57;5.30;;;4.88;;
40849;SDS011;26571;41.610;25.380;2023-04-23T01:02:23;4.85;;;4.60;;
40849;SDS011;26571;41.610;25.380;2023-04-23T01:04:52;5.70;;;5.13;;
40849;SDS011;26571;41.610;25.380;2023-04-23T01:07:19;5.43;;;4.90;;
40849;SDS011;26571;41.610;25.380;2023-04-23T01:09:45;4.38;;;4.07;;
40849;SDS011;26571;41.610;25.380;2023-04-23T01:12:11;4.43;;;4.22;;
40849;SDS011;26571;41.610;25.380;2023-04-23T01:14:37;7.05;;;4.13;;
40849;SDS011;26571;41.610;25.380;2023-04-23T01:17:03;4.95;;;4.45;;
40849;SDS011;26571;41.610;25.380;2023-04-23T01:19:29;4.57;;;4.27;;
40849;SDS011;26571;41.610;25.380;2023-04-23T01:21:56;4.45;;;3.97;;
40849;SDS011;26571;41.610;25.380;2023-04-23T01:24:25;4.43;;;3.35;;
40849;SDS011;26571;41.610;25.380;2023-04-23T01:26:52;3.75;;;3.45;;
40849;SDS011;26571;41.610;25.380;2023-04-23T01:29:17;3.53;;;3.33;;
40849;SDS011;26571;41.610;25.380;2023-04-23T01:31:44;5.32;;;4.95;;
40849;SDS011;26571;41.610;25.380;2023-04-23T01:34:10;5.83;;;5.43;;
40849;SDS011;26571;41.610;25.380;2023-04-23T01:36:36;5.70;;;4.97;;
40849;SDS011;26571;41.610;25.380;2023-04-23T01:39:02;7.22;;;5.25;;
40849;SDS011;26571;41.610;25.380;2023-04-23T01:41:27;6.22;;;5.63;;
40849;SDS011;26571;41.610;25.380;2023-04-23T01:43:52;6.78;;;5.93;;
40849;SDS011;26571;41.610;25.380;2023-04-23T01:46:19;5.32;;;4.82;;
40849;SDS011;26571;41.610;25.380;2023-04-23T01:48:45;5.65;;;5.00;;
40849;SDS011;26571;41.610;25.380;2023-04-23T01:51:11;6.75;;;6.25;;
40849;SDS011;26571;41.610;25.380;2023-04-23T01:53:36;5.65;;;5.25;;
40849;SDS011;26571;41.610;25.380;2023-04-23T01:56:02;5.88;;;5.47;;
40849;SDS011;26571;41.610;25.380;2023-04-23T01:58:27;6.63;;;6.13;;
40849;SDS011;26571;41.610;25.380;2023-04-23T02:00:53;5.50;;;5.07;;
40849;SDS011;26571;41.610;25.380;2023-04-23T02:03:18;6.40;;;5.90;;
40849;SDS011;26571;41.610;25.380;2023-04-23T02:05:44;9.40;;;5.60;;
40849;SDS011;26571;41.610;25.380;2023-04-23T02:08:09;6.20;;;5.80;;
40849;SDS011;26571;41.610;25.380;2023-04-23T02:10:35;5.63;;;5.22;;
40849;SDS011;26571;41.610;25.380;2023-04-23T02:13:00;7.00;;;6.20;;
40849;SDS011;26571;41.610;25.380;2023-04-23T02:15:26;7.60;;;7.07;;
40849;SDS011;26571;41.610;25.380;2023-04-23T02:17:52;5.90;;;5.50;;
40849;SDS011;26571;41.610;25.380;2023-04-23T02:20:18;6.97;;;6.38;;
40849;SDS011;26571;41.610;25.380;2023-04-23T02:22:44;6.97;;;6.40;;
40849;SDS011;26571;41.610;25.380;2023-04-23T02:25:11;5.90;;;5.50;;
40849;SDS011;26571;41.610;25.380;2023-04-23T02:27:39;5.97;;;5.57;;
40849;SDS011;26571;41.610;25.380;2023-04-23T02:30:06;6.10;;;5.60;;
40849;SDS011;26571;41.610;25.380;2023-04-23T02:32:33;5.80;;;5.47;;
40849;SDS011;26571;41.610;25.380;2023-04-23T02:34:58;6.25;;;5.80;;
40849;SDS011;26571;41.610;25.380;2023-04-23T02:37:26;6.22;;;5.82;;
40849;SDS011;26571;41.610;25.380;2023-04-23T02:39:51;5.38;;;4.95;;
40849;SDS011;26571;41.610;25.380;2023-04-23T02:42:17;6.20;;;5.55;;
40849;SDS011;26571;41.610;25.380;2023-04-23T02:44:42;5.65;;;5.32;;
40849;SDS011;26571;41.610;25.380;2023-04-23T02:47:07;8.18;;;7.38;;
40849;SDS011;26571;41.610;25.380;2023-04-23T02:49:33;6.97;;;6.38;;
40849;SDS011;26571;41.610;25.380;2023-04-23T02:51:58;8.05;;;7.28;;
40849;SDS011;26571;41.610;25.380;2023-04-23T02:54:23;9.00;;;7.93;;
40849;SDS011;26571;41.610;25.380;2023-04-23T02:56:49;14.23;;;9.85;;
40849;SDS011;26571;41.610;25.380;2023-04-23T02:59:15;24.58;;;14.13;;
40849;SDS011;26571;41.610;25.380;2023-04-23T03:01:41;25.65;;;17.23;;
40849;SDS011;26571;41.610;25.380;2023-04-23T03:04:06;39.63;;;21.30;;
40849;SDS011;26571;41.610;25.380;2023-04-23T03:06:32;16.92;;;12.30;;
40849;SDS011;26571;41.610;25.380;2023-04-23T03:08:59;32.38;;;20.42;;
40849;SDS011;26571;41.610;25.380;2023-04-23T03:11:25;54.47;;;32.42;;
40849;SDS011;26571;41.610;25.380;2023-04-23T03:13:50;35.40;;;22.40;;
40849;SDS011;26571;41.610;25.380;2023-04-23T03:16:16;55.00;;;33.90;;
40849;SDS011;26571;41.610;25.380;2023-04-23T03:18:41;63.20;;;35.53;;
40849;SDS011;26571;41.610;25.380;2023-04-23T03:21:07;56.42;;;32.92;;
40849;SDS011;26571;41.610;25.380;2023-04-23T03:23:32;35.35;;;21.83;;
40849;SDS011;26571;41.610;25.380;2023-04-23T03:25:57;21.38;;;14.07;;
40849;SDS011;26571;41.610;25.380;2023-04-23T03:28:23;30.95;;;19.40;;
40849;SDS011;26571;41.610;25.380;2023-04-23T03:30:48;31.35;;;20.50;;
40849;SDS011;26571;41.610;25.380;2023-04-23T03:33:14;30.08;;;21.05;;
40849;SDS011;26571;41.610;25.380;2023-04-23T03:35:40;27.27;;;18.33;;
40849;SDS011;26571;41.610;25.380;2023-04-23T03:38:05;18.65;;;13.77;;
40849;SDS011;26571;41.610;25.380;2023-04-23T03:40:31;21.08;;;15.27;;
40849;SDS011;26571;41.610;25.380;2023-04-23T03:42:56;17.33;;;11.50;;
40849;SDS011;26571;41.610;25.380;2023-04-23T03:45:22;21.50;;;14.18;;
40849;SDS011;26571;41.610;25.380;2023-04-23T03:47:48;19.30;;;15.35;;
40849;SDS011;26571;41.610;25.380;2023-04-23T03:50:13;13.40;;;11.48;;
40849;SDS011;26571;41.610;25.380;2023-04-23T03:52:39;11.32;;;10.13;;
40849;SDS011;26571;41.610;25.380;2023-04-23T03:55:04;11.45;;;10.20;;
40849;SDS011;26571;41.610;25.380;2023-04-23T03:57:31;10.57;;;9.68;;
40849;SDS011;26571;41.610;25.380;2023-04-23T03:59:56;7.85;;;7.13;;
40849;SDS011;26571;41.610;25.380;2023-04-23T04:02:22;7.03;;;6.43;;
40849;SDS011;26571;41.610;25.380;2023-04-23T04:04:47;7.70;;;7.10;;
40849;SDS011;26571;41.610;25.380;2023-04-23T04:07:15;10.98;;;7.38;;
40849;SDS011;26571;41.610;25.380;2023-04-23T04:09:41;8.35;;;7.55;;
40849;SDS011;26571;41.610;25.380;2023-04-23T04:12:06;8.90;;;6.55;;
40849;SDS011;26571;41.610;25.380;2023-04-23T04:14:32;9.65;;;8.75;;
40849;SDS011;26571;41.610;25.380;2023-04-23T04:16:57;7.53;;;6.88;;
40849;SDS011;26571;41.610;25.380;2023-04-23T04:19:23;8.90;;;7.13;;
40849;SDS011;26571;41.610;25.380;2023-04-23T04:21:49;7.35;;;6.65;;
40849;SDS011;26571;41.610;25.380;2023-04-23T04:24:15;6.87;;;6.20;;
40849;SDS011;26571;41.610;25.380;2023-04-23T04:26:42;6.28;;;5.78;;
40849;SDS011;26571;41.610;25.380;2023-04-23T04:29:09;11.43;;;8.40;;
40849;SDS011;26571;41.610;25.380;2023-04-23T04:31:34;7.82;;;7.22;;
40849;SDS011;26571;41.610;25.380;2023-04-23T04:34:01;12.77;;;10.97;;
40849;SDS011;26571;41.610;25.380;2023-04-23T04:36:26;12.38;;;10.98;;
40849;SDS011;26571;41.610;25.380;2023-04-23T04:38:52;11.07;;;9.98;;
40849;SDS011;26571;41.610;25.380;2023-04-23T04:43:46;9.20;;;8.20;;
40849;SDS011;26571;41.610;25.380;2023-04-23T04:46:12;8.82;;;7.93;;
40849;SDS011;26571;41.610;25.380;2023-04-23T04:48:37;8.75;;;7.97;;
40849;SDS011;26571;41.610;25.380;2023-04-23T04:51:03;6.28;;;5.88;;
40849;SDS011;26571;41.610;25.380;2023-04-23T04:53:28;6.30;;;5.75;;
40849;SDS011;26571;41.610;25.380;2023-04-23T04:55:54;7.03;;;6.32;;
40849;SDS011;26571;41.610;25.380;2023-04-23T04:58:19;5.13;;;4.82;;
40849;SDS011;26571;41.610;25.380;2023-04-23T05:00:45;6.47;;;6.00;;
40849;SDS011;26571;41.610;25.380;2023-04-23T05:03:13;5.50;;;4.75;;
40849;SDS011;26571;41.610;25.380;2023-04-23T05:05:38;4.72;;;3.72;;
40849;SDS011;26571;41.610;25.380;2023-04-23T05:08:03;4.57;;;4.22;;
40849;SDS011;26571;41.610;25.380;2023-04-23T05:10:29;6.57;;;5.13;;
40849;SDS011;26571;41.610;25.380;2023-04-23T05:12:55;8.00;;;6.60;;
40849;SDS011;26571;41.610;25.380;2023-04-23T05:15:21;5.63;;;4.78;;
40849;SDS011;26571;41.610;25.380;2023-04-23T05:17:47;6.22;;;5.75;;
40849;SDS011;26571;41.610;25.380;2023-04-23T05:20:14;5.50;;;5.00;;
40849;SDS011;26571;41.610;25.380;2023-04-23T05:22:40;8.13;;;3.47;;
40849;SDS011;26571;41.610;25.380;2023-04-23T05:25:06;2.65;;;2.55;;
40849;SDS011;26571;41.610;25.380;2023-04-23T05:27:33;3.83;;;3.53;;
40849;SDS011;26571;41.610;25.380;2023-04-23T05:30:02;9.45;;;3.85;;
40849;SDS011;26571;41.610;25.380;2023-04-23T05:32:30;3.55;;;3.25;;
40849;SDS011;26571;41.610;25.380;2023-04-23T05:34:56;3.43;;;2.67;;
40849;SDS011;26571;41.610;25.380;2023-04-23T05:37:21;3.85;;;1.52;;
40849;SDS011;26571;41.610;25.380;2023-04-23T05:39:47;1.73;;;1.33;;
40849;SDS011;26571;41.610;25.380;2023-04-23T05:42:12;1.17;;;1.17;;
40849;SDS011;26571;41.610;25.380;2023-04-23T05:44:38;3.43;;;1.63;;
40849;SDS011;26571;41.610;25.380;2023-04-23T05:47:05;3.72;;;1.70;;
40849;SDS011;26571;41.610;25.380;2023-04-23T05:49:31;3.60;;;1.90;;
40849;SDS011;26571;41.610;25.380;2023-04-23T05:51:56;1.03;;;0.93;;
40849;SDS011;26571;41.610;25.380;2023-04-23T05:54:23;4.90;;;1.13;;
40849;SDS011;26571;41.610;25.380;2023-04-23T05:56:48;2.10;;;1.10;;
40849;SDS011;26571;41.610;25.380;2023-04-23T05:59:14;5.63;;;2.10;;
40849;SDS011;26571;41.610;25.380;2023-04-23T06:01:39;3.03;;;1.50;;
40849;SDS011;26571;41.610;25.380;2023-04-23T06:04:06;1.17;;;0.83;;
40849;SDS011;26571;41.610;25.380;2023-04-23T06:06:31;5.32;;;1.25;;
40849;SDS011;26571;41.610;25.380;2023-04-23T06:08:57;3.83;;;1.00;;
40849;SDS011;26571;41.610;25.380;2023-04-23T06:11:22;2.93;;;1.07;;
40849;SDS011;26571;41.610;25.380;2023-04-23T06:13:48;2.97;;;0.68;;
40849;SDS011;26571;41.610;25.380;2023-04-23T06:16:13;3.28;;;0.90;;
40849;SDS011;26571;41.610;25.380;2023-04-23T06:18:39;1.90;;;1.17;;
40849;SDS011;26571;41.610;25.380;2023-04-23T06:21:04;4.35;;;0.88;;
40849;SDS011;26571;41.610;25.380;2023-04-23T06:23:30;3.40;;;1.08;;
40849;SDS011;26571;41.610;25.380;2023-04-23T06:25:57;7.60;;;1.95;;
40849;SDS011;26571;41.610;25.380;2023-04-23T06:28:22;3.80;;;1.13;;
40849;SDS011;26571;41.610;25.380;2023-04-23T06:30:48;4.47;;;0.90;;
40849;SDS011;26571;41.610;25.380;2023-04-23T06:33:13;3.60;;;1.33;;
40849;SDS011;26571;41.610;25.380;2023-04-23T06:35:39;2.20;;;0.80;;
40849;SDS011;26571;41.610;25.380;2023-04-23T06:38:04;1.77;;;1.02;;
40849;SDS011;26571;41.610;25.380;2023-04-23T06:40:30;4.72;;;1.15;;
40849;SDS011;26571;41.610;25.380;2023-04-23T06:42:56;2.83;;;1.42;;
40849;SDS011;26571;41.610;25.380;2023-04-23T06:45:22;2.63;;;0.80;;
40849;SDS011;26571;41.610;25.380;2023-04-23T06:47:47;6.57;;;0.90;;
40849;SDS011;26571;41.610;25.380;2023-04-23T06:50:13;4.78;;;0.70;;
40849;SDS011;26571;41.610;25.380;2023-04-23T06:52:39;2.95;;;1.17;;
40849;SDS011;26571;41.610;25.380;2023-04-23T06:55:05;4.87;;;1.20;;
40849;SDS011;26571;41.610;25.380;2023-04-23T06:57:32;1.67;;;0.68;;
40849;SDS011;26571;41.610;25.380;2023-04-23T06:59:57;4.50;;;0.80;;
40849;SDS011;26571;41.610;25.380;2023-04-23T07:02:23;1.92;;;0.95;;
40849;SDS011;26571;41.610;25.380;2023-04-23T07:04:48;4.55;;;0.70;;
40849;SDS011;26571;41.610;25.380;2023-04-23T07:07:13;3.65;;;0.95;;
40849;SDS011;26571;41.610;25.380;2023-04-23T07:09:39;2.05;;;0.70;;
40849;SDS011;26571;41.610;25.380;2023-04-23T07:12:04;2.08;;;0.60;;
40849;SDS011;26571;41.610;25.380;2023-04-23T07:14:30;8.40;;;1.25;;
40849;SDS011;26571;41.610;25.380;2023-04-23T07:16:56;3.75;;;0.88;;
40849;SDS011;26571;41.610;25.380;2023-04-23T07:19:23;4.95;;;0.90;;
40849;SDS011;26571;41.610;25.380;2023-04-23T07:21:48;2.05;;;0.70;;
40849;SDS011;26571;41.610;25.380;2023-04-23T07:24:14;4.57;;;0.90;;
40849;SDS011;26571;41.610;25.380;2023-04-23T07:26:40;4.00;;;1.65;;
40849;SDS011;26571;41.610;25.380;2023-04-23T07:29:06;6.35;;;0.70;;
40849;SDS011;26571;41.610;25.380;2023-04-23T07:31:34;11.57;;;1.27;;
40849;SDS011;26571;41.610;25.380;2023-04-23T07:34:00;4.40;;;0.73;;
40849;SDS011;26571;41.610;25.380;2023-04-23T07:36:25;23.00;;;14.82;;
40849;SDS011;26571;41.610;25.380;2023-04-23T07:38:51;4.63;;;0.90;;
40849;SDS011;26571;41.610;25.380;2023-04-23T07:41:17;13.18;;;8.50;;
40849;SDS011;26571;41.610;25.380;2023-04-23T07:43:42;4.47;;;0.57;;
40849;SDS011;26571;41.610;25.380;2023-04-23T07:46:08;2.63;;;0.80;;
40849;SDS011;26571;41.610;25.380;2023-04-23T07:48:33;2.13;;;0.70;;
40849;SDS011;26571;41.610;25.380;2023-04-23T07:51:00;2.38;;;0.68;;
40849;SDS011;26571;41.610;25.380;2023-04-23T07:53:26;2.80;;;0.70;;
40849;SDS011;26571;41.610;25.380;2023-04-23T07:55:53;2.97;;;1.33;;
40849;SDS011;26571;41.610;25.380;2023-04-23T07:58:20;2.42;;;0.73;;
40849;SDS011;26571;41.610;25.380;2023-04-23T08:00:46;3.58;;;0.70;;
40849;SDS011;26571;41.610;25.380;2023-04-23T08:03:11;6.60;;;0.57;;
40849;SDS011;26571;41.610;25.380;2023-04-23T08:05:37;5.32;;;1.13;;
40849;SDS011;26571;41.610;25.380;2023-04-23T08:08:05;1.95;;;0.70;;
40849;SDS011;26571;41.610;25.380;2023-04-23T08:10:30;4.07;;;1.30;;
40849;SDS011;26571;41.610;25.380;2023-04-23T08:12:56;4.63;;;1.35;;
40849;SDS011;26571;41.610;25.380;2023-04-23T08:15:21;2.08;;;1.27;;
40849;SDS011;26571;41.610;25.380;2023-04-23T08:17:47;5.75;;;1.35;;
40849;SDS011;26571;41.610;25.380;2023-04-23T08:20:12;6.70;;;4.70;;
40849;SDS011;26571;41.610;25.380;2023-04-23T08:22:38;6.03;;;1.85;;
40849;SDS011;26571;41.610;25.380;2023-04-23T08:25:03;4.38;;;0.90;;
40849;SDS011;26571;41.610;25.380;2023-04-23T08:27:29;1.38;;;0.50;;
40849;SDS011;26571;41.610;25.380;2023-04-23T08:29:55;1.95;;;0.73;;
40849;SDS011;26571;41.610;25.380;2023-04-23T08:32:20;4.65;;;0.70;;
40849;SDS011;26571;41.610;25.380;2023-04-23T08:34:46;1.10;;;0.60;;
40849;SDS011;26571;41.610;25.380;2023-04-23T08:37:11;1.65;;;0.40;;
40849;SDS011;26571;41.610;25.380;2023-04-23T08:39:36;1.10;;;0.63;;
40849;SDS011;26571;41.610;25.380;2023-04-23T08:42:36;5.03;;;1.63;;
40849;SDS011;26571;41.610;25.380;2023-04-23T08:45:14;5.63;;;1.58;;
40849;SDS011;26571;41.610;25.380;2023-04-23T08:47:40;1.73;;;0.52;;
40849;SDS011;26571;41.610;25.380;2023-04-23T08:50:07;5.07;;;0.60;;
40849;SDS011;26571;41.610;25.380;2023-04-23T08:52:35;1.60;;;0.50;;
40849;SDS011;26571;41.610;25.380;2023-04-23T08:55:04;1.67;;;0.60;;
40849;SDS011;26571;41.610;25.380;2023-04-23T08:57:34;7.68;;;2.15;;
40849;SDS011;26571;41.610;25.380;2023-04-23T09:00:03;4.30;;;0.80;;
40849;SDS011;26571;41.610;25.380;2023-04-23T09:02:35;2.53;;;0.40;;
40849;SDS011;26571;41.610;25.380;2023-04-23T09:05:05;0.88;;;0.75;;
40849;SDS011;26571;41.610;25.380;2023-04-23T09:07:31;3.30;;;0.60;;
40849;SDS011;26571;41.610;25.380;2023-04-23T09:09:57;3.58;;;0.60;;
40849;SDS011;26571;41.610;25.380;2023-04-23T09:12:23;4.22;;;1.17;;
40849;SDS011;26571;41.610;25.380;2023-04-23T09:14:49;3.80;;;0.52;;
40849;SDS011;26571;41.610;25.380;2023-04-23T09:17:15;2.95;;;0.80;;
40849;SDS011;26571;41.610;25.380;2023-04-23T09:19:44;4.35;;;1.02;;
40849;SDS011;26571;41.610;25.380;2023-04-23T09:22:10;0.60;;;0.47;;
40849;SDS011;26571;41.610;25.380;2023-04-23T09:24:37;2.65;;;0.70;;
40849;SDS011;26571;41.610;25.380;2023-04-23T09:27:06;2.08;;;0.70;;
40849;SDS011;26571;41.610;25.380;2023-04-23T09:29:31;1.38;;;0.80;;
40849;SDS011;26571;41.610;25.380;2023-04-23T09:32:07;3.50;;;0.70;;
40849;SDS011;26571;41.610;25.380;2023-04-23T09:34:34;5.60;;;0.77;;
40849;SDS011;26571;41.610;25.380;2023-04-23T09:37:04;4.05;;;0.90;;
40849;SDS011;26571;41.610;25.380;2023-04-23T09:39:32;4.60;;;0.70;;
40849;SDS011;26571;41.610;25.380;2023-04-23T09:42:02;3.08;;;0.80;;
40849;SDS011;26571;41.610;25.380;2023-04-23T09:44:32;6.00;;;0.80;;
40849;SDS011;26571;41.610;25.380;2023-04-23T09:47:08;5.60;;;0.70;;
40849;SDS011;26571;41.610;25.380;2023-04-23T09:49:46;2.95;;;0.70;;
40849;SDS011;26571;41.610;25.380;2023-04-23T09:52:13;4.22;;;0.77;;
40849;SDS011;26571;41.610;25.380;2023-04-23T09:54:38;1.85;;;0.98;;
40849;SDS011;26571;41.610;25.380;2023-04-23T09:57:04;1.70;;;0.40;;
40849;SDS011;26571;41.610;25.380;2023-04-23T09:59:32;3.45;;;0.50;;
40849;SDS011;26571;41.610;25.380;2023-04-23T10:02:00;3.85;;;1.77;;
40849;SDS011;26571;41.610;25.380;2023-04-23T10:04:29;2.58;;;0.70;;
40849;SDS011;26571;41.610;25.380;2023-04-23T10:06:56;3.25;;;0.63;;
40849;SDS011;26571;41.610;25.380;2023-04-23T10:09:23;3.28;;;0.77;;
40849;SDS011;26571;41.610;25.380;2023-04-23T10:11:50;3.90;;;1.27;;
40849;SDS011;26571;41.610;25.380;2023-04-23T10:16:42;2.67;;;0.77;;
40849;SDS011;26571;41.610;25.380;2023-04-23T10:19:11;6.75;;;1.02;;
40849;SDS011;26571;41.610;25.380;2023-04-23T10:21:39;3.03;;;0.82;;
40849;SDS011;26571;41.610;25.380;2023-04-23T10:24:06;5.20;;;0.75;;
40849;SDS011;26571;41.610;25.380;2023-04-23T10:26:37;0.95;;;0.60;;
40849;SDS011;26571;41.610;25.380;2023-04-23T10:29:07;4.35;;;0.73;;
40849;SDS011;26571;41.610;25.380;2023-04-23T10:31:38;5.50;;;1.13;;
40849;SDS011;26571;41.610;25.380;2023-04-23T10:34:04;3.53;;;0.73;;
40849;SDS011;26571;41.610;25.380;2023-04-23T10:36:34;1.95;;;0.50;;
40849;SDS011;26571;41.610;25.380;2023-04-23T10:39:03;3.80;;;0.52;;
40849;SDS011;26571;41.610;25.380;2023-04-23T10:41:35;0.85;;;0.60;;
40849;SDS011;26571;41.610;25.380;2023-04-23T10:44:04;3.08;;;0.75;;
40849;SDS011;26571;41.610;25.380;2023-04-23T10:46:31;3.55;;;1.13;;
40849;SDS011;26571;41.610;25.380;2023-04-23T10:49:07;2.53;;;0.60;;
40849;SDS011;26571;41.610;25.380;2023-04-23T10:51:38;6.68;;;1.50;;
40849;SDS011;26571;41.610;25.380;2023-04-23T10:54:06;2.15;;;0.60;;
40849;SDS011;26571;41.610;25.380;2023-04-23T10:56:34;2.60;;;0.50;;
40849;SDS011;26571;41.610;25.380;2023-04-23T10:59:02;0.90;;;0.50;;
40849;SDS011;26571;41.610;25.380;2023-04-23T11:02:16;4.43;;;1.17;;
40849;SDS011;26571;41.610;25.380;2023-04-23T11:04:45;3.67;;;0.50;;
40849;SDS011;26571;41.610;25.380;2023-04-23T11:07:24;2.78;;;0.80;;
40849;SDS011;26571;41.610;25.380;2023-04-23T11:09:53;1.25;;;1.00;;
40849;SDS011;26571;41.610;25.380;2023-04-23T11:14:48;3.65;;;0.60;;
40849;SDS011;26571;41.610;25.380;2023-04-23T11:17:15;1.73;;;0.70;;
40849;SDS011;26571;41.610;25.380;2023-04-23T11:20:05;1.83;;;1.30;;
40849;SDS011;26571;41.610;25.380;2023-04-23T11:22:38;4.18;;;0.55;;
40849;SDS011;26571;41.610;25.380;2023-04-23T11:25:09;4.50;;;0.60;;
40849;SDS011;26571;41.610;25.380;2023-04-23T11:27:40;2.42;;;0.70;;
40849;SDS011;26571;41.610;25.380;2023-04-23T11:30:10;4.40;;;1.15;;
40849;SDS011;26571;41.610;25.380;2023-04-23T11:32:42;2.78;;;0.47;;
40849;SDS011;26571;41.610;25.380;2023-04-23T11:35:09;1.13;;;0.40;;
40849;SDS011;26571;41.610;25.380;2023-04-23T11:37:41;4.35;;;0.50;;
40849;SDS011;26571;41.610;25.380;2023-04-23T11:40:08;4.20;;;0.40;;
40849;SDS011;26571;41.610;25.380;2023-04-23T11:42:41;3.40;;;0.60;;
40849;SDS011;26571;41.610;25.380;2023-04-23T11:45:16;1.88;;;0.50;;
40849;SDS011;26571;41.610;25.380;2023-04-23T11:47:44;3.08;;;0.60;;
40849;SDS011;26571;41.610;25.380;2023-04-23T11:50:16;1.88;;;1.40;;
40849;SDS011;26571;41.610;25.380;2023-04-23T11:52:45;2.00;;;0.65;;
40849;SDS011;26571;41.610;25.380;2023-04-23T11:55:11;2.73;;;0.60;;
40849;SDS011;26571;41.610;25.380;2023-04-23T11:57:41;1.05;;;0.60;;
40849;SDS011;26571;41.610;25.380;2023-04-23T12:00:11;2.15;;;0.70;;
40849;SDS011;26571;41.610;25.380;2023-04-23T12:02:48;1.42;;;0.82;;
40849;SDS011;26571;41.610;25.380;2023-04-23T12:05:26;1.30;;;0.47;;
40849;SDS011;26571;41.610;25.380;2023-04-23T12:08:19;3.03;;;0.47;;
40849;SDS011;26571;41.610;25.380;2023-04-23T12:13:12;1.75;;;0.40;;
40849;SDS011;26571;41.610;25.380;2023-04-23T12:15:48;3.80;;;0.80;;
40849;SDS011;26571;41.610;25.380;2023-04-23T12:18:38;4.47;;;0.60;;
40849;SDS011;26571;41.610;25.380;2023-04-23T12:21:06;2.20;;;0.50;;
40849;SDS011;26571;41.610;25.380;2023-04-23T12:23:34;1.27;;;0.85;;
40849;SDS011;26571;41.610;25.380;2023-04-23T12:28:27;1.17;;;0.57;;
40849;SDS011;26571;41.610;25.380;2023-04-23T12:30:57;4.28;;;0.47;;
40849;SDS011;26571;41.610;25.380;2023-04-23T12:33:27;1.60;;;1.27;;
40849;SDS011;26571;41.610;25.380;2023-04-23T12:35:53;1.23;;;0.30;;
40849;SDS011;26571;41.610;25.380;2023-04-23T12:38:22;2.33;;;0.43;;
40849;SDS011;26571;41.610;25.380;2023-04-23T12:40:49;2.15;;;0.47;;
40849;SDS011;26571;41.610;25.380;2023-04-23T12:43:19;2.88;;;0.98;;
40849;SDS011;26571;41.610;25.380;2023-04-23T12:45:44;3.65;;;0.50;;
40849;SDS011;26571;41.610;25.380;2023-04-23T12:48:10;5.97;;;0.45;;
40849;SDS011;26571;41.610;25.380;2023-04-23T12:50:36;4.10;;;0.70;;
40849;SDS011;26571;41.610;25.380;2023-04-23T12:53:02;2.35;;;0.47;;
40849;SDS011;26571;41.610;25.380;2023-04-23T12:55:28;3.58;;;0.50;;
40849;SDS011;26571;41.610;25.380;2023-04-23T12:57:53;2.75;;;0.60;;
40849;SDS011;26571;41.610;25.380;2023-04-23T13:00:19;3.05;;;0.60;;
40849;SDS011;26571;41.610;25.380;2023-04-23T13:02:44;0.85;;;0.73;;
40849;SDS011;26571;41.610;25.380;2023-04-23T13:05:10;1.50;;;0.52;;
40849;SDS011;26571;41.610;25.380;2023-04-23T13:07:36;0.85;;;0.40;;
40849;SDS011;26571;41.610;25.380;2023-04-23T13:10:01;2.83;;;0.75;;
40849;SDS011;26571;41.610;25.380;2023-04-23T13:12:27;3.65;;;0.88;;
40849;SDS011;26571;41.610;25.380;2023-04-23T13:14:52;1.27;;;0.50;;
40849;SDS011;26571;41.610;25.380;2023-04-23T13:17:17;3.60;;;0.55;;
40849;SDS011;26571;41.610;25.380;2023-04-23T13:19:43;3.83;;;0.60;;
40849;SDS011;26571;41.610;25.380;2023-04-23T13:22:08;5.60;;;0.50;;
40849;SDS011;26571;41.610;25.380;2023-04-23T13:24:34;6.22;;;0.68;;
40849;SDS011;26571;41.610;25.380;2023-04-23T13:27:00;1.58;;;0.52;;
40849;SDS011;26571;41.610;25.380;2023-04-23T13:29:26;1.23;;;0.50;;
40849;SDS011;26571;41.610;25.380;2023-04-23T13:31:55;0.68;;;0.40;;
40849;SDS011;26571;41.610;25.380;2023-04-23T13:34:22;5.40;;;0.50;;
40849;SDS011;26571;41.610;25.380;2023-04-23T13:36:47;1.95;;;0.40;;
40849;SDS011;26571;41.610;25.380;2023-04-23T13:39:13;3.65;;;0.47;;
40849;SDS011;26571;41.610;25.380;2023-04-23T13:41:38;4.95;;;0.70;;
40849;SDS011;26571;41.610;25.380;2023-04-23T13:44:04;2.87;;;0.73;;
40849;SDS011;26571;41.610;25.380;2023-04-23T13:46:30;4.43;;;0.55;;
40849;SDS011;26571;41.610;25.380;2023-04-23T13:48:56;2.60;;;0.50;;
40849;SDS011;26571;41.610;25.380;2023-04-23T13:51:21;4.57;;;0.70;;
40849;SDS011;26571;41.610;25.380;2023-04-23T13:53:47;4.32;;;0.50;;
40849;SDS011;26571;41.610;25.380;2023-04-23T13:56:12;0.60;;;0.60;;
40849;SDS011;26571;41.610;25.380;2023-04-23T13:58:38;9.10;;;1.85;;
40849;SDS011;26571;41.610;25.380;2023-04-23T14:01:06;2.22;;;0.57;;
40849;SDS011;26571;41.610;25.380;2023-04-23T14:03:37;4.03;;;1.13;;
40849;SDS011;26571;41.610;25.380;2023-04-23T14:06:02;16.58;;;6.63;;
40849;SDS011;26571;41.610;25.380;2023-04-23T14:08:28;3.67;;;1.05;;
40849;SDS011;26571;41.610;25.380;2023-04-23T14:10:54;4.72;;;0.50;;
40849;SDS011;26571;41.610;25.380;2023-04-23T14:13:19;4.25;;;0.50;;
40849;SDS011;26571;41.610;25.380;2023-04-23T14:15:45;2.60;;;0.88;;
40849;SDS011;26571;41.610;25.380;2023-04-23T14:18:10;2.47;;;0.57;;
40849;SDS011;26571;41.610;25.380;2023-04-23T14:20:35;1.08;;;0.40;;
40849;SDS011;26571;41.610;25.380;2023-04-23T14:25:46;2.58;;;0.52;;
40849;SDS011;26571;41.610;25.380;2023-04-23T14:30:55;1.80;;;0.50;;
40849;SDS011;26571;41.610;25.380;2023-04-23T14:33:22;2.90;;;0.70;;
40849;SDS011;26571;41.610;25.380;2023-04-23T14:35:47;1.98;;;0.40;;
40849;SDS011;26571;41.610;25.380;2023-04-23T14:38:13;3.90;;;0.75;;
40849;SDS011;26571;41.610;25.380;2023-04-23T14:40:38;1.92;;;0.40;;
40849;SDS011;26571;41.610;25.380;2023-04-23T14:43:04;2.35;;;0.47;;
40849;SDS011;26571;41.610;25.380;2023-04-23T14:45:30;1.05;;;0.40;;
40849;SDS011;26571;41.610;25.380;2023-04-23T14:47:57;5.35;;;0.50;;
40849;SDS011;26571;41.610;25.380;2023-04-23T14:50:22;2.13;;;0.40;;